CLX57D LHBP-ELLX
Flight info
| Callsign | CLX57D |
|---|---|
| Flight time | 1h 33m |
| Altitude | 30000 |
| Route | GILEP DCT ZOLKU DCT ABETI DCT BALAD DCT BARUG DCT SITNI DCT LNZ DCT RENKA L610 STAUB/N0424F240 L610 AMOSA Z104 MISGI T894 OLGIL Z656 IDOVI T894 ODVUX Z104 AGBUL T894 BITBU Z110 BETEX |
| Aircraft | B77L/H-SADE1E2E3FGHIJ2J3J4J5M1RWXY/LB1D1 |
Departure
| Time | 2026-05-06 12:35 |
|---|---|
| Airport | Budapest Liszt Ferenc International Airport (LHBP) |
Arrival
| Time | 2026-05-06 14:08 |
|---|---|
| Airport | Luxembourg-Findel International Airport (ELLX) |
| Time | Latitude | Longitude | Altitude | Speed | Heading |
|---|---|---|---|---|---|
| 2026-05-06 12:10 | 47.42833 | 19.27732 | 462 ft | 0 kts | 312° |
| 2026-05-06 12:24 | 47.42830 | 19.27737 | 462 ft | 4 kts | 311° |
| 2026-05-06 12:25 | 47.42813 | 19.27769 | 458 ft | 4 kts | 307° |
| 2026-05-06 12:25 | 47.42795 | 19.27796 | 456 ft | 4 kts | 340° |
| 2026-05-06 12:25 | 47.42773 | 19.27803 | 461 ft | 4 kts | 7° |
| 2026-05-06 12:25 | 47.42750 | 19.27789 | 460 ft | 4 kts | 41° |
| 2026-05-06 12:26 | 47.42740 | 19.27775 | 456 ft | 0 kts | 43° |
| 2026-05-06 12:29 | 47.42748 | 19.27787 | 460 ft | 6 kts | 43° |
| 2026-05-06 12:29 | 47.42790 | 19.27843 | 462 ft | 8 kts | 43° |
| 2026-05-06 12:29 | 47.42844 | 19.27907 | 462 ft | 12 kts | 18° |
| 2026-05-06 12:29 | 47.42908 | 19.27838 | 462 ft | 12 kts | 311° |
| 2026-05-06 12:30 | 47.42970 | 19.27737 | 462 ft | 18 kts | 313° |
| 2026-05-06 12:30 | 47.43058 | 19.27595 | 462 ft | 19 kts | 312° |
| 2026-05-06 12:30 | 47.43147 | 19.27451 | 462 ft | 19 kts | 313° |
| 2026-05-06 12:30 | 47.43236 | 19.27309 | 462 ft | 19 kts | 312° |
| 2026-05-06 12:31 | 47.43323 | 19.27167 | 463 ft | 19 kts | 312° |
| 2026-05-06 12:31 | 47.43412 | 19.27024 | 463 ft | 19 kts | 312° |
| 2026-05-06 12:31 | 47.43508 | 19.26869 | 463 ft | 22 kts | 313° |
| 2026-05-06 12:31 | 47.43613 | 19.26701 | 463 ft | 22 kts | 312° |
| 2026-05-06 12:32 | 47.43718 | 19.26532 | 462 ft | 22 kts | 312° |
| 2026-05-06 12:32 | 47.43822 | 19.26363 | 462 ft | 22 kts | 312° |
| 2026-05-06 12:32 | 47.43892 | 19.26251 | 462 ft | 6 kts | 313° |
| 2026-05-06 12:32 | 47.43930 | 19.26204 | 463 ft | 8 kts | 345° |
| 2026-05-06 12:33 | 47.43991 | 19.26256 | 464 ft | 14 kts | 41° |
| 2026-05-06 12:33 | 47.44055 | 19.26359 | 469 ft | 14 kts | 62° |
| 2026-05-06 12:33 | 47.44066 | 19.26500 | 470 ft | 14 kts | 102° |
| 2026-05-06 12:33 | 47.44039 | 19.26569 | 470 ft | 8 kts | 131° |
| 2026-05-06 12:34 | 47.43881 | 19.26824 | 469 ft | 69 kts | 133° |
| 2026-05-06 12:34 | 47.43404 | 19.27595 | 468 ft | 135 kts | 132° |
| 2026-05-06 12:34 | 47.42651 | 19.28810 | 523 ft | 174 kts | 137° |
| 2026-05-06 12:34 | 47.41845 | 19.30164 | 1072 ft | 179 kts | 131° |
| 2026-05-06 12:35 | 47.41255 | 19.31816 | 1728 ft | 180 kts | 122° |
| 2026-05-06 12:35 | 47.40648 | 19.33496 | 2389 ft | 197 kts | 124° |
| 2026-05-06 12:35 | 47.39931 | 19.35404 | 2711 ft | 229 kts | 123° |
| 2026-05-06 12:35 | 47.39129 | 19.37509 | 3305 ft | 244 kts | 124° |
| 2026-05-06 12:36 | 47.38227 | 19.39670 | 3997 ft | 252 kts | 137° |
| 2026-05-06 12:36 | 47.36728 | 19.40932 | 4655 ft | 251 kts | 174° |
| 2026-05-06 12:36 | 47.35020 | 19.40699 | 5626 ft | 248 kts | 204° |
| 2026-05-06 12:36 | 47.33604 | 19.39274 | 6627 ft | 250 kts | 227° |
| 2026-05-06 12:37 | 47.32616 | 19.37136 | 7558 ft | 254 kts | 239° |
| 2026-05-06 12:37 | 47.31746 | 19.34854 | 8436 ft | 261 kts | 240° |
| 2026-05-06 12:37 | 47.30861 | 19.32498 | 9401 ft | 264 kts | 240° |
| 2026-05-06 12:37 | 47.29963 | 19.30105 | 10268 ft | 270 kts | 240° |
| 2026-05-06 12:38 | 47.29016 | 19.27594 | 10741 ft | 292 kts | 240° |
| 2026-05-06 12:38 | 47.27974 | 19.24850 | 10952 ft | 322 kts | 240° |
| 2026-05-06 12:38 | 47.26831 | 19.21848 | 11247 ft | 347 kts | 240° |
| 2026-05-06 12:38 | 47.25630 | 19.18708 | 12026 ft | 356 kts | 240° |
| 2026-05-06 12:39 | 47.24399 | 19.15502 | 12929 ft | 363 kts | 240° |
| 2026-05-06 12:39 | 47.23139 | 19.12231 | 13788 ft | 370 kts | 240° |
| 2026-05-06 12:39 | 47.21865 | 19.08927 | 14674 ft | 372 kts | 240° |
| 2026-05-06 12:39 | 47.20862 | 19.05420 | 15312 ft | 378 kts | 257° |
| 2026-05-06 12:40 | 47.20750 | 19.01536 | 16052 ft | 389 kts | 275° |
| 2026-05-06 12:40 | 47.21408 | 18.97677 | 16754 ft | 400 kts | 289° |
| 2026-05-06 12:40 | 47.22830 | 18.94116 | 17413 ft | 409 kts | 304° |
| 2026-05-06 12:40 | 47.24641 | 18.90771 | 17942 ft | 421 kts | 306° |
| 2026-05-06 12:41 | 47.26502 | 18.87401 | 18643 ft | 425 kts | 306° |
| 2026-05-06 12:41 | 47.28366 | 18.84010 | 19506 ft | 425 kts | 306° |
| 2026-05-06 12:41 | 47.30205 | 18.80619 | 20357 ft | 425 kts | 306° |
| 2026-05-06 12:41 | 47.32047 | 18.77186 | 21100 ft | 428 kts | 305° |
| 2026-05-06 12:42 | 47.33888 | 18.73723 | 21802 ft | 431 kts | 305° |
| 2026-05-06 12:42 | 47.35740 | 18.70222 | 22513 ft | 434 kts | 305° |
| 2026-05-06 12:42 | 47.37597 | 18.66706 | 23228 ft | 437 kts | 305° |
| 2026-05-06 12:42 | 47.39457 | 18.63183 | 23838 ft | 440 kts | 305° |
| 2026-05-06 12:43 | 47.41296 | 18.59561 | 24410 ft | 441 kts | 300° |
| 2026-05-06 12:43 | 47.42557 | 18.55453 | 24840 ft | 437 kts | 284° |
| 2026-05-06 12:43 | 47.43344 | 18.51086 | 25271 ft | 443 kts | 282° |
| 2026-05-06 12:43 | 47.44154 | 18.46663 | 25828 ft | 446 kts | 283° |
| 2026-05-06 12:44 | 47.45007 | 18.42246 | 26421 ft | 448 kts | 283° |
| 2026-05-06 12:44 | 47.45895 | 18.37801 | 26995 ft | 450 kts | 284° |
| 2026-05-06 12:44 | 47.46784 | 18.33413 | 27542 ft | 453 kts | 284° |
| 2026-05-06 12:44 | 47.47692 | 18.28925 | 28051 ft | 456 kts | 284° |
| 2026-05-06 12:45 | 47.48596 | 18.24408 | 28545 ft | 459 kts | 283° |
| 2026-05-06 12:45 | 47.49408 | 18.19831 | 29078 ft | 460 kts | 281° |
| 2026-05-06 12:45 | 47.50882 | 18.10557 | 29919 ft | 464 kts | 281° |
| 2026-05-06 12:46 | 47.51610 | 18.05964 | 29889 ft | 463 kts | 281° |
| 2026-05-06 12:46 | 47.53108 | 17.96714 | 29865 ft | 461 kts | 281° |
| 2026-05-06 12:47 | 47.54618 | 17.87475 | 29878 ft | 462 kts | 281° |
| 2026-05-06 12:47 | 47.56109 | 17.78258 | 29892 ft | 462 kts | 280° |
| 2026-05-06 12:48 | 47.57555 | 17.68958 | 29881 ft | 462 kts | 280° |
| 2026-05-06 12:48 | 47.58971 | 17.59721 | 29885 ft | 462 kts | 280° |
| 2026-05-06 12:49 | 47.60395 | 17.50423 | 29870 ft | 462 kts | 280° |
| 2026-05-06 12:49 | 47.61812 | 17.41137 | 29886 ft | 461 kts | 279° |
| 2026-05-06 12:50 | 47.63224 | 17.31835 | 29855 ft | 461 kts | 279° |
| 2026-05-06 12:50 | 47.64616 | 17.22609 | 29844 ft | 461 kts | 279° |
| 2026-05-06 12:51 | 47.66011 | 17.13313 | 29841 ft | 461 kts | 279° |
| 2026-05-06 12:51 | 47.67396 | 17.04029 | 29838 ft | 461 kts | 279° |
| 2026-05-06 12:52 | 47.68672 | 16.94699 | 29838 ft | 460 kts | 276° |
| 2026-05-06 12:52 | 47.69717 | 16.85357 | 29831 ft | 461 kts | 276° |
| 2026-05-06 12:53 | 47.70763 | 16.75951 | 29829 ft | 461 kts | 276° |
| 2026-05-06 12:53 | 47.71654 | 16.68133 | 29821 ft | 462 kts | 276° |
| 2026-05-06 12:54 | 47.72726 | 16.58765 | 29825 ft | 461 kts | 276° |
| 2026-05-06 12:54 | 47.73796 | 16.49361 | 29812 ft | 461 kts | 276° |
| 2026-05-06 12:55 | 47.74857 | 16.39943 | 29819 ft | 461 kts | 276° |
| 2026-05-06 12:55 | 47.75908 | 16.30540 | 29799 ft | 461 kts | 276° |
| 2026-05-06 12:56 | 47.77001 | 16.21200 | 29803 ft | 462 kts | 278° |
| 2026-05-06 12:56 | 47.78405 | 16.11864 | 29813 ft | 461 kts | 279° |
| 2026-05-06 12:57 | 47.79841 | 16.02549 | 29809 ft | 460 kts | 279° |
| 2026-05-06 12:57 | 47.81228 | 15.93399 | 29797 ft | 446 kts | 279° |
| 2026-05-06 12:58 | 47.82562 | 15.84475 | 29801 ft | 437 kts | 278° |
| 2026-05-06 12:58 | 47.83856 | 15.75707 | 29817 ft | 435 kts | 278° |
| 2026-05-06 12:59 | 47.85149 | 15.66905 | 29803 ft | 434 kts | 278° |
| 2026-05-06 12:59 | 47.86433 | 15.58130 | 29801 ft | 433 kts | 278° |
| 2026-05-06 13:00 | 47.87714 | 15.49348 | 29798 ft | 433 kts | 277° |
| 2026-05-06 13:00 | 47.88974 | 15.40625 | 29804 ft | 433 kts | 278° |
| 2026-05-06 13:01 | 47.90738 | 15.31982 | 29807 ft | 440 kts | 287° |
| 2026-05-06 13:01 | 47.93290 | 15.23649 | 29798 ft | 441 kts | 289° |
| 2026-05-06 13:02 | 47.95844 | 15.15324 | 29786 ft | 440 kts | 289° |
| 2026-05-06 13:02 | 47.98365 | 15.06988 | 29779 ft | 439 kts | 288° |
| 2026-05-06 13:03 | 48.00848 | 14.98719 | 29814 ft | 440 kts | 288° |
| 2026-05-06 13:03 | 48.03351 | 14.90366 | 29777 ft | 439 kts | 288° |
| 2026-05-06 13:04 | 48.05797 | 14.82003 | 29773 ft | 436 kts | 285° |
| 2026-05-06 13:04 | 48.07880 | 14.73499 | 29773 ft | 435 kts | 284° |
| 2026-05-06 13:05 | 48.09921 | 14.64976 | 29773 ft | 435 kts | 284° |
| 2026-05-06 13:05 | 48.11973 | 14.56445 | 29762 ft | 437 kts | 284° |
| 2026-05-06 13:06 | 48.14030 | 14.47904 | 29760 ft | 439 kts | 284° |
| 2026-05-06 13:06 | 48.16101 | 14.39283 | 29759 ft | 440 kts | 284° |
| 2026-05-06 13:07 | 48.18168 | 14.30640 | 29744 ft | 441 kts | 284° |
| 2026-05-06 13:07 | 48.20231 | 14.21988 | 29780 ft | 441 kts | 283° |
| 2026-05-06 13:08 | 48.22459 | 14.13446 | 29742 ft | 446 kts | 290° |
| 2026-05-06 13:08 | 48.25819 | 14.05505 | 29770 ft | 455 kts | 301° |
| 2026-05-06 13:09 | 48.30052 | 13.98334 | 29764 ft | 458 kts | 306° |
| 2026-05-06 13:09 | 48.34334 | 13.91297 | 29769 ft | 457 kts | 305° |
| 2026-05-06 13:10 | 48.38593 | 13.84197 | 29778 ft | 458 kts | 304° |
| 2026-05-06 13:10 | 48.42854 | 13.77023 | 29766 ft | 458 kts | 304° |
| 2026-05-06 13:11 | 48.47079 | 13.69887 | 29773 ft | 458 kts | 304° |
| 2026-05-06 13:11 | 48.51325 | 13.62698 | 29769 ft | 458 kts | 304° |
| 2026-05-06 13:12 | 48.55557 | 13.55495 | 29760 ft | 457 kts | 303° |
| 2026-05-06 13:12 | 48.59008 | 13.47605 | 29775 ft | 444 kts | 290° |
| 2026-05-06 13:13 | 48.61318 | 13.39120 | 29776 ft | 436 kts | 282° |
| 2026-05-06 13:13 | 48.63348 | 13.30465 | 29777 ft | 437 kts | 283° |
| 2026-05-06 13:14 | 48.65407 | 13.21805 | 29767 ft | 438 kts | 283° |
| 2026-05-06 13:14 | 48.67483 | 13.13131 | 29807 ft | 437 kts | 283° |
| 2026-05-06 13:15 | 48.69537 | 13.04504 | 29779 ft | 438 kts | 282° |
| 2026-05-06 13:15 | 48.71586 | 12.95813 | 29772 ft | 437 kts | 282° |
| 2026-05-06 13:16 | 48.73625 | 12.87128 | 29775 ft | 437 kts | 282° |
| 2026-05-06 13:16 | 48.75654 | 12.78454 | 29775 ft | 436 kts | 282° |
| 2026-05-06 13:17 | 48.77665 | 12.69832 | 29775 ft | 436 kts | 282° |
| 2026-05-06 13:17 | 48.79680 | 12.61145 | 29776 ft | 436 kts | 282° |
| 2026-05-06 13:18 | 48.81684 | 12.52456 | 29775 ft | 436 kts | 282° |
| 2026-05-06 13:18 | 48.83679 | 12.43766 | 29777 ft | 436 kts | 282° |
| 2026-05-06 13:19 | 48.85660 | 12.35112 | 29770 ft | 436 kts | 282° |
| 2026-05-06 13:19 | 48.87653 | 12.26368 | 29784 ft | 438 kts | 282° |
| 2026-05-06 13:20 | 48.89995 | 12.17793 | 29785 ft | 446 kts | 290° |
| 2026-05-06 13:20 | 48.92838 | 12.09387 | 29778 ft | 446 kts | 290° |
| 2026-05-06 13:21 | 48.95668 | 12.00960 | 29777 ft | 446 kts | 290° |
| 2026-05-06 13:21 | 48.98454 | 11.92564 | 29805 ft | 446 kts | 290° |
| 2026-05-06 13:22 | 49.01247 | 11.84098 | 29778 ft | 446 kts | 290° |
| 2026-05-06 13:22 | 49.04031 | 11.75629 | 29771 ft | 446 kts | 290° |
| 2026-05-06 13:23 | 49.06807 | 11.67160 | 29775 ft | 445 kts | 290° |
| 2026-05-06 13:23 | 49.09556 | 11.58742 | 29776 ft | 445 kts | 290° |
| 2026-05-06 13:24 | 49.12231 | 11.50530 | 29771 ft | 446 kts | 290° |
| 2026-05-06 13:24 | 49.14847 | 11.42466 | 29782 ft | 447 kts | 290° |
| 2026-05-06 13:25 | 49.17581 | 11.33988 | 29776 ft | 447 kts | 290° |
| 2026-05-06 13:25 | 49.20378 | 11.25547 | 29759 ft | 437 kts | 294° |
| 2026-05-06 13:26 | 49.23867 | 11.18087 | 29245 ft | 430 kts | 304° |
| 2026-05-06 13:26 | 49.25915 | 11.14747 | 28852 ft | 427 kts | 308° |
| 2026-05-06 13:26 | 49.27985 | 11.11491 | 28362 ft | 424 kts | 308° |
| 2026-05-06 13:26 | 49.30006 | 11.08306 | 27914 ft | 420 kts | 308° |
| 2026-05-06 13:27 | 49.32024 | 11.05100 | 27467 ft | 416 kts | 308° |
| 2026-05-06 13:27 | 49.34028 | 11.01891 | 27022 ft | 413 kts | 308° |
| 2026-05-06 13:27 | 49.36007 | 10.98709 | 26582 ft | 411 kts | 308° |
| 2026-05-06 13:27 | 49.37997 | 10.95545 | 26152 ft | 414 kts | 310° |
| 2026-05-06 13:28 | 49.40182 | 10.92596 | 25721 ft | 421 kts | 318° |
| 2026-05-06 13:28 | 49.42584 | 10.90001 | 25285 ft | 421 kts | 321° |
| 2026-05-06 13:28 | 49.44989 | 10.87481 | 24852 ft | 418 kts | 321° |
| 2026-05-06 13:28 | 49.47347 | 10.84964 | 24430 ft | 415 kts | 320° |
| 2026-05-06 13:29 | 49.49586 | 10.82205 | 24009 ft | 408 kts | 311° |
| 2026-05-06 13:29 | 49.51478 | 10.79012 | 23817 ft | 401 kts | 305° |
| 2026-05-06 13:29 | 49.53142 | 10.75459 | 23800 ft | 415 kts | 298° |
| 2026-05-06 13:29 | 49.54614 | 10.71637 | 23789 ft | 424 kts | 297° |
| 2026-05-06 13:30 | 49.56114 | 10.67692 | 23790 ft | 427 kts | 297° |
| 2026-05-06 13:30 | 49.57625 | 10.63733 | 23778 ft | 425 kts | 297° |
| 2026-05-06 13:30 | 49.59128 | 10.59810 | 23776 ft | 424 kts | 297° |
| 2026-05-06 13:30 | 49.60632 | 10.55894 | 23773 ft | 422 kts | 297° |
| 2026-05-06 13:31 | 49.62112 | 10.52043 | 23779 ft | 421 kts | 297° |
| 2026-05-06 13:31 | 49.63608 | 10.48145 | 23775 ft | 421 kts | 297° |
| 2026-05-06 13:31 | 49.65098 | 10.44256 | 23779 ft | 421 kts | 297° |
| 2026-05-06 13:31 | 49.66602 | 10.40367 | 23801 ft | 422 kts | 298° |
| 2026-05-06 13:32 | 49.68135 | 10.36492 | 23790 ft | 424 kts | 298° |
| 2026-05-06 13:32 | 49.69678 | 10.32612 | 23784 ft | 425 kts | 298° |
| 2026-05-06 13:32 | 49.71228 | 10.28706 | 23777 ft | 426 kts | 298° |
| 2026-05-06 13:32 | 49.72775 | 10.24791 | 23776 ft | 427 kts | 298° |
| 2026-05-06 13:33 | 49.74305 | 10.20908 | 23775 ft | 428 kts | 298° |
| 2026-05-06 13:33 | 49.75847 | 10.16979 | 23782 ft | 427 kts | 298° |
| 2026-05-06 13:33 | 49.77325 | 10.12980 | 23766 ft | 425 kts | 293° |
| 2026-05-06 13:33 | 49.78406 | 10.08759 | 23763 ft | 420 kts | 285° |
| 2026-05-06 13:34 | 49.79124 | 10.04386 | 23763 ft | 417 kts | 277° |
| 2026-05-06 13:34 | 49.79488 | 9.99966 | 23770 ft | 414 kts | 274° |
| 2026-05-06 13:34 | 49.79782 | 9.95536 | 23783 ft | 413 kts | 274° |
| 2026-05-06 13:34 | 49.80074 | 9.91099 | 23790 ft | 413 kts | 274° |
| 2026-05-06 13:35 | 49.80369 | 9.86725 | 23751 ft | 414 kts | 274° |
| 2026-05-06 13:35 | 49.80676 | 9.82291 | 23765 ft | 413 kts | 274° |
| 2026-05-06 13:35 | 49.80987 | 9.77866 | 23760 ft | 413 kts | 274° |
| 2026-05-06 13:35 | 49.81298 | 9.73449 | 23766 ft | 412 kts | 274° |
| 2026-05-06 13:36 | 49.81610 | 9.69030 | 23776 ft | 412 kts | 274° |
| 2026-05-06 13:36 | 49.81919 | 9.64610 | 23769 ft | 412 kts | 274° |
| 2026-05-06 13:36 | 49.82232 | 9.60245 | 23772 ft | 412 kts | 275° |
| 2026-05-06 13:36 | 49.82754 | 9.55873 | 23762 ft | 414 kts | 282° |
| 2026-05-06 13:37 | 49.83477 | 9.51544 | 23779 ft | 415 kts | 282° |
| 2026-05-06 13:37 | 49.84202 | 9.47213 | 23768 ft | 415 kts | 282° |
| 2026-05-06 13:37 | 49.84911 | 9.42881 | 23782 ft | 414 kts | 282° |
| 2026-05-06 13:37 | 49.85606 | 9.38551 | 23769 ft | 414 kts | 282° |
| 2026-05-06 13:38 | 49.86064 | 9.35691 | 23769 ft | 413 kts | 282° |
| 2026-05-06 13:38 | 49.86877 | 9.31409 | 23779 ft | 414 kts | 286° |
| 2026-05-06 13:38 | 49.87778 | 9.27176 | 23764 ft | 414 kts | 286° |
| 2026-05-06 13:38 | 49.88691 | 9.22937 | 23766 ft | 414 kts | 286° |
| 2026-05-06 13:39 | 49.89596 | 9.18696 | 23764 ft | 413 kts | 286° |
| 2026-05-06 13:39 | 49.90480 | 9.14502 | 23781 ft | 413 kts | 286° |
| 2026-05-06 13:39 | 49.91360 | 9.10259 | 23775 ft | 413 kts | 284° |
| 2026-05-06 13:39 | 49.92009 | 9.05928 | 23765 ft | 411 kts | 277° |
| 2026-05-06 13:40 | 49.92410 | 9.00021 | 23772 ft | 409 kts | 270° |
| 2026-05-06 13:40 | 49.92408 | 8.97107 | 23773 ft | 408 kts | 268° |
| 2026-05-06 13:40 | 49.92355 | 8.92704 | 23776 ft | 407 kts | 268° |
| 2026-05-06 13:40 | 49.92217 | 8.88330 | 23768 ft | 407 kts | 263° |
| 2026-05-06 13:41 | 49.91783 | 8.83979 | 23762 ft | 406 kts | 257° |
| 2026-05-06 13:41 | 49.91158 | 8.79718 | 23772 ft | 405 kts | 256° |
| 2026-05-06 13:41 | 49.90543 | 8.75502 | 23780 ft | 405 kts | 256° |
| 2026-05-06 13:41 | 49.89926 | 8.71223 | 23769 ft | 406 kts | 256° |
| 2026-05-06 13:42 | 49.89316 | 8.66947 | 23767 ft | 406 kts | 257° |
| 2026-05-06 13:42 | 49.88707 | 8.62651 | 23769 ft | 406 kts | 257° |
| 2026-05-06 13:42 | 49.88099 | 8.58375 | 23771 ft | 406 kts | 257° |
| 2026-05-06 13:42 | 49.87495 | 8.54135 | 23768 ft | 407 kts | 257° |
| 2026-05-06 13:43 | 49.87114 | 8.49761 | 23769 ft | 409 kts | 266° |
| 2026-05-06 13:43 | 49.87163 | 8.45334 | 23790 ft | 411 kts | 273° |
| 2026-05-06 13:43 | 49.87577 | 8.40919 | 23772 ft | 414 kts | 281° |
| 2026-05-06 13:43 | 49.88252 | 8.36567 | 23784 ft | 415 kts | 282° |
| 2026-05-06 13:44 | 49.88943 | 8.32258 | 23781 ft | 416 kts | 282° |
| 2026-05-06 13:44 | 49.89640 | 8.27879 | 23778 ft | 417 kts | 282° |
| 2026-05-06 13:44 | 49.90325 | 8.23498 | 23780 ft | 417 kts | 282° |
| 2026-05-06 13:44 | 49.90996 | 8.19137 | 23789 ft | 415 kts | 281° |
| 2026-05-06 13:45 | 49.91661 | 8.14773 | 23779 ft | 413 kts | 281° |
| 2026-05-06 13:45 | 49.92959 | 8.06177 | 23774 ft | 409 kts | 281° |
| 2026-05-06 13:45 | 49.93607 | 8.01868 | 23779 ft | 408 kts | 281° |
| 2026-05-06 13:46 | 49.94250 | 7.97580 | 23778 ft | 407 kts | 281° |
| 2026-05-06 13:46 | 49.94959 | 7.93335 | 23783 ft | 407 kts | 284° |
| 2026-05-06 13:46 | 49.95766 | 7.89108 | 23788 ft | 407 kts | 285° |
| 2026-05-06 13:46 | 49.96594 | 7.84889 | 23779 ft | 408 kts | 285° |
| 2026-05-06 13:47 | 49.97405 | 7.80725 | 23817 ft | 408 kts | 284° |
| 2026-05-06 13:47 | 49.98216 | 7.76470 | 23783 ft | 413 kts | 284° |
| 2026-05-06 13:47 | 49.99036 | 7.72188 | 23776 ft | 411 kts | 285° |
| 2026-05-06 13:47 | 49.99886 | 7.67971 | 23776 ft | 406 kts | 285° |
| 2026-05-06 13:48 | 50.00748 | 7.63801 | 23784 ft | 406 kts | 285° |
| 2026-05-06 13:48 | 50.01614 | 7.59611 | 23791 ft | 407 kts | 285° |
| 2026-05-06 13:48 | 50.02480 | 7.55400 | 23792 ft | 408 kts | 285° |
| 2026-05-06 13:48 | 50.03342 | 7.51179 | 23793 ft | 409 kts | 285° |
| 2026-05-06 13:49 | 50.04190 | 7.47002 | 23804 ft | 409 kts | 285° |
| 2026-05-06 13:49 | 50.05047 | 7.42770 | 23804 ft | 410 kts | 285° |
| 2026-05-06 13:49 | 50.05903 | 7.38532 | 23800 ft | 410 kts | 285° |
| 2026-05-06 13:49 | 50.06748 | 7.34344 | 23790 ft | 399 kts | 285° |
| 2026-05-06 13:50 | 50.07490 | 7.30249 | 23810 ft | 384 kts | 280° |
| 2026-05-06 13:50 | 50.07951 | 7.26189 | 23554 ft | 376 kts | 274° |
| 2026-05-06 13:50 | 50.08134 | 7.22144 | 23116 ft | 373 kts | 271° |
| 2026-05-06 13:50 | 50.08284 | 7.18171 | 22653 ft | 371 kts | 271° |
| 2026-05-06 13:51 | 50.08438 | 7.14172 | 22239 ft | 366 kts | 272° |
| 2026-05-06 13:51 | 50.08590 | 7.10418 | 21832 ft | 367 kts | 272° |
| 2026-05-06 13:51 | 50.08754 | 7.06416 | 21412 ft | 373 kts | 272° |
| 2026-05-06 13:51 | 50.08919 | 7.02351 | 20984 ft | 379 kts | 272° |
| 2026-05-06 13:52 | 50.09086 | 6.98225 | 20559 ft | 384 kts | 272° |
| 2026-05-06 13:52 | 50.09256 | 6.94036 | 20104 ft | 390 kts | 272° |
| 2026-05-06 13:52 | 50.09423 | 6.89863 | 19647 ft | 389 kts | 271° |
| 2026-05-06 13:52 | 50.09498 | 6.85680 | 19206 ft | 384 kts | 267° |
| 2026-05-06 13:53 | 50.09416 | 6.81536 | 18748 ft | 378 kts | 265° |
| 2026-05-06 13:53 | 50.09010 | 6.77546 | 18289 ft | 371 kts | 251° |
| 2026-05-06 13:53 | 50.08012 | 6.73867 | 17841 ft | 366 kts | 241° |
| 2026-05-06 13:53 | 50.06605 | 6.70638 | 17355 ft | 363 kts | 229° |
| 2026-05-06 13:54 | 50.04907 | 6.67758 | 16902 ft | 359 kts | 228° |
| 2026-05-06 13:54 | 50.03236 | 6.64883 | 16452 ft | 356 kts | 229° |
| 2026-05-06 13:54 | 50.01598 | 6.62011 | 16019 ft | 352 kts | 229° |
| 2026-05-06 13:54 | 49.99974 | 6.59187 | 15579 ft | 349 kts | 226° |
| 2026-05-06 13:55 | 49.98199 | 6.56703 | 15182 ft | 346 kts | 218° |
| 2026-05-06 13:55 | 49.96248 | 6.54549 | 14746 ft | 343 kts | 213° |
| 2026-05-06 13:55 | 49.94174 | 6.52748 | 14321 ft | 340 kts | 208° |
| 2026-05-06 13:55 | 49.92075 | 6.51054 | 13914 ft | 337 kts | 208° |
| 2026-05-06 13:56 | 49.90000 | 6.49371 | 13509 ft | 335 kts | 209° |
| 2026-05-06 13:56 | 49.87942 | 6.47692 | 13079 ft | 332 kts | 209° |
| 2026-05-06 13:56 | 49.85935 | 6.46050 | 12681 ft | 328 kts | 209° |
| 2026-05-06 13:56 | 49.84106 | 6.44067 | 12276 ft | 318 kts | 227° |
| 2026-05-06 13:57 | 49.82821 | 6.41319 | 11933 ft | 313 kts | 239° |
| 2026-05-06 13:57 | 49.81769 | 6.38406 | 11728 ft | 304 kts | 242° |
| 2026-05-06 13:57 | 49.80796 | 6.35553 | 11656 ft | 292 kts | 243° |
| 2026-05-06 13:57 | 49.79871 | 6.32821 | 11506 ft | 281 kts | 243° |
| 2026-05-06 13:58 | 49.78983 | 6.30200 | 11253 ft | 275 kts | 243° |
| 2026-05-06 13:58 | 49.78109 | 6.27605 | 10829 ft | 269 kts | 243° |
| 2026-05-06 13:58 | 49.77247 | 6.25040 | 10285 ft | 268 kts | 243° |
| 2026-05-06 13:58 | 49.76382 | 6.22465 | 9751 ft | 268 kts | 243° |
| 2026-05-06 13:59 | 49.75524 | 6.19904 | 9245 ft | 266 kts | 243° |
| 2026-05-06 13:59 | 49.74672 | 6.17382 | 8686 ft | 263 kts | 243° |
| 2026-05-06 13:59 | 49.73846 | 6.14912 | 8126 ft | 261 kts | 243° |
| 2026-05-06 13:59 | 49.73010 | 6.12412 | 7614 ft | 260 kts | 243° |
| 2026-05-06 14:00 | 49.72179 | 6.09946 | 7198 ft | 257 kts | 243° |
| 2026-05-06 14:00 | 49.71344 | 6.07483 | 6699 ft | 261 kts | 243° |
| 2026-05-06 14:00 | 49.70518 | 6.05041 | 6530 ft | 258 kts | 243° |
| 2026-05-06 14:00 | 49.69680 | 6.02603 | 6308 ft | 253 kts | 239° |
| 2026-05-06 14:01 | 49.68611 | 6.00437 | 5997 ft | 253 kts | 230° |
| 2026-05-06 14:01 | 49.67422 | 5.98431 | 5651 ft | 254 kts | 228° |
| 2026-05-06 14:01 | 49.66207 | 5.96428 | 5262 ft | 254 kts | 227° |
| 2026-05-06 14:01 | 49.64991 | 5.94438 | 4891 ft | 254 kts | 228° |
| 2026-05-06 14:02 | 49.63793 | 5.92499 | 4613 ft | 250 kts | 228° |
| 2026-05-06 14:02 | 49.62598 | 5.90599 | 4359 ft | 241 kts | 225° |
| 2026-05-06 14:02 | 49.61177 | 5.89284 | 3936 ft | 242 kts | 194° |
| 2026-05-06 14:02 | 49.59518 | 5.89318 | 3661 ft | 239 kts | 162° |
| 2026-05-06 14:03 | 49.58011 | 5.90319 | 3595 ft | 233 kts | 154° |
| 2026-05-06 14:03 | 49.56589 | 5.91417 | 3546 ft | 224 kts | 153° |
| 2026-05-06 14:03 | 49.55204 | 5.92502 | 3381 ft | 221 kts | 152° |
| 2026-05-06 14:03 | 49.53962 | 5.93791 | 3068 ft | 215 kts | 126° |
| 2026-05-06 14:04 | 49.53448 | 5.95841 | 3005 ft | 205 kts | 86° |
| 2026-05-06 14:04 | 49.53846 | 5.97870 | 2998 ft | 202 kts | 54° |
| 2026-05-06 14:04 | 49.54607 | 5.99636 | 3023 ft | 194 kts | 56° |
| 2026-05-06 14:04 | 49.55283 | 6.01399 | 2987 ft | 186 kts | 57° |
| 2026-05-06 14:05 | 49.55930 | 6.03120 | 2982 ft | 189 kts | 57° |
| 2026-05-06 14:05 | 49.56582 | 6.04876 | 2989 ft | 185 kts | 57° |
| 2026-05-06 14:05 | 49.57212 | 6.06573 | 2971 ft | 178 kts | 57° |
| 2026-05-06 14:05 | 49.57811 | 6.08176 | 2820 ft | 170 kts | 57° |
| 2026-05-06 14:06 | 49.58374 | 6.09690 | 2619 ft | 160 kts | 56° |
| 2026-05-06 14:06 | 49.58915 | 6.11146 | 2403 ft | 150 kts | 56° |
| 2026-05-06 14:06 | 49.59428 | 6.12518 | 2179 ft | 146 kts | 56° |
| 2026-05-06 14:06 | 49.59940 | 6.13890 | 1923 ft | 148 kts | 56° |
| 2026-05-06 14:07 | 49.60453 | 6.15272 | 1745 ft | 153 kts | 57° |
| 2026-05-06 14:07 | 49.60977 | 6.16687 | 1519 ft | 153 kts | 56° |
| 2026-05-06 14:07 | 49.61507 | 6.18102 | 1299 ft | 152 kts | 57° |
| 2026-05-06 14:07 | 49.62024 | 6.19480 | 1186 ft | 138 kts | 58° |
| 2026-05-06 14:08 | 49.62428 | 6.20570 | 1249 ft | 91 kts | 59° |
| 2026-05-06 14:08 | 49.62652 | 6.21169 | 1250 ft | 49 kts | 60° |
| 2026-05-06 14:08 | 49.62816 | 6.21615 | 1225 ft | 47 kts | 60° |
| 2026-05-06 14:08 | 49.62958 | 6.21999 | 1219 ft | 24 kts | 60° |
| 2026-05-06 14:09 | 49.63024 | 6.22130 | 1218 ft | 13 kts | 21° |
| 2026-05-06 14:09 | 49.63091 | 6.22099 | 1223 ft | 9 kts | 330° |
| 2026-05-06 14:09 | 49.63147 | 6.22050 | 1229 ft | 9 kts | 333° |
| 2026-05-06 14:09 | 49.63206 | 6.22076 | 1232 ft | 10 kts | 48° |
| 2026-05-06 14:10 | 49.63240 | 6.22173 | 1231 ft | 12 kts | 64° |
| 2026-05-06 14:10 | 49.63288 | 6.22328 | 1227 ft | 18 kts | 65° |
| 2026-05-06 14:10 | 49.63351 | 6.22522 | 1220 ft | 22 kts | 61° |
| 2026-05-06 14:10 | 49.63420 | 6.22708 | 1219 ft | 16 kts | 60° |
| 2026-05-06 14:11 | 49.63463 | 6.22823 | 1219 ft | 8 kts | 60° |
| 2026-05-06 14:11 | 49.63509 | 6.22859 | 1219 ft | 8 kts | 355° |
| 2026-05-06 14:11 | 49.63559 | 6.22816 | 1219 ft | 7 kts | 329° |
| 2026-05-06 14:11 | 49.63569 | 6.22762 | 1219 ft | 6 kts | 249° |
| 2026-05-06 14:12 | 49.63552 | 6.22711 | 1219 ft | 5 kts | 240° |
| 2026-05-06 14:12 | 49.63544 | 6.22689 | 1219 ft | 1 kts | 240° |
| 2026-05-06 14:12 | 49.63544 | 6.22688 | 1219 ft | 0 kts | 240° |